Time;durP1;ratioP1;P1;durP2;ratioP2;P2;SDS_P1;SDS_P2;PMS_P1;PMS_P2;Temp;Humidity;BMP_temperature;BMP_pressure;BME280_temperature;BME280_humidity;BME280_pressure;Samples;Min_cycle;Max_cycle;Signal;HPM_P1;HPM_P2
2023/03/24 00:00:45;;;;;;;;;;;;;;;13.00;61.68;97164.59;5090847;28;19996;-57
2023/03/24 00:03:15;;;;;;;;;;;;;;;12.97;62.03;97162.53;5090149;28;19939;-57
2023/03/24 00:05:44;;;;;;;;;;;;;;;12.96;61.99;97163.69;5092386;28;20298;-57
2023/03/24 00:08:12;;;;;;;;;;;;;;;12.92;61.91;97158.09;5094193;27;19948;-56
2023/03/24 00:10:41;;;;;;;;;;;;;;;12.87;62.05;97155.63;5081674;28;19938;-56
2023/03/24 00:13:09;;;;;;;;;;;;;;;12.87;61.91;97155.63;5089894;28;19961;-59
2023/03/24 00:15:39;;;;;;;;;;;;;;;12.90;61.84;97165.06;5083163;28;20005;-56
2023/03/24 00:18:09;;;;;;;;;;;;;;;12.90;61.88;97154.16;5084919;28;20421;-58
2023/03/24 00:20:37;;;;;;;;;;;;;;;12.89;62.08;97156.09;5089802;28;19935;-57
2023/03/24 00:23:05;;;;;;;;;;;;;;;12.92;62.07;97147.19;5090129;28;19938;-57
2023/03/24 00:25:35;;;;;;;;;;;;;;;12.86;62.23;97148.59;5082202;28;19942;-56
2023/03/24 00:28:06;;;;;;;;;;;;;;;12.90;62.18;97149.50;5091607;28;20004;-57
2023/03/24 00:30:34;;;;;;;;;;;;;;;12.90;62.27;97138.59;5084582;28;19942;-56
2023/03/24 00:33:02;;;;;;;;;;;;;;;12.95;62.03;97140.28;5090707;28;19962;-56
2023/03/24 00:35:30;;;;;;;;;;;;;;;13.02;62.16;97141.28;5095489;28;19946;-64
2023/03/24 00:37:59;;;;;;;;;;;;;;;13.00;62.11;97142.78;5093511;28;20457;-57
2023/03/24 00:40:27;;;;;;;;;;;;;;;12.99;62.36;97135.69;5090077;28;19942;-57
2023/03/24 00:42:55;;;;;;;;;;;;;;;12.99;62.15;97128.31;5084762;28;20292;-57
2023/03/24 00:45:25;;;;;;;;;;;;;;;13.00;62.35;97132.66;5089655;28;19945;-57
2023/03/24 00:47:53;;;;;;;;;;;;;;;13.02;62.17;97129.56;5099405;28;19935;-58
2023/03/24 00:50:25;;;;;;;;;;;;;;;13.02;61.95;97138.53;5104168;28;19938;-57
2023/03/24 00:52:53;;;;;;;;;;;;;;;13.00;61.93;97149.00;5092323;28;19962;-56
2023/03/24 00:55:21;;;;;;;;;;;;;;;12.97;62.09;97155.13;5093283;28;19938;-57
2023/03/24 00:57:50;;;;;;;;;;;;;;;13.21;61.66;97135.22;5093941;28;20400;-56
2023/03/24 01:00:20;;;;;;;;;;;;;;;13.10;62.89;97134.91;5093690;28;20319;-57
2023/03/24 01:02:52;;;;;;;;;;;;;;;13.01;63.73;97117.88;5096064;28;19958;-57
2023/03/24 01:05:20;;;;;;;;;;;;;;;13.02;63.68;97135.03;5088201;28;19939;-56
2023/03/24 01:07:52;;;;;;;;;;;;;;;13.03;64.09;97126.50;5094859;28;19935;-56
2023/03/24 01:10:24;;;;;;;;;;;;;;;12.98;64.12;97124.00;5086331;28;19943;-56
2023/03/24 01:12:53;;;;;;;;;;;;;;;12.91;64.38;97129.25;5094119;28;19958;-58
2023/03/24 01:15:23;;;;;;;;;;;;;;;12.92;65.20;97130.84;5096747;28;19934;-55
2023/03/24 01:17:53;;;;;;;;;;;;;;;12.89;65.50;97119.81;5096700;28;19939;-56
2023/03/24 01:20:21;;;;;;;;;;;;;;;12.88;65.37;97112.78;5095765;28;19932;-56
2023/03/24 01:22:50;;;;;;;;;;;;;;;12.89;65.60;97117.91;5086624;28;19938;-56
2023/03/24 01:25:19;;;;;;;;;;;;;;;12.98;65.38;97118.56;5092769;28;19938;-57
2023/03/24 01:27:47;;;;;;;;;;;;;;;12.85;65.31;97122.47;5092374;28;19960;-56
2023/03/24 01:30:16;;;;;;;;;;;;;;;12.85;65.76;97127.91;5093496;28;19942;-56
2023/03/24 01:32:44;;;;;;;;;;;;;;;12.89;65.04;97131.56;5091079;28;19935;-58
2023/03/24 01:35:14;;;;;;;;;;;;;;;12.96;65.14;97139.13;5098110;28;19986;-56
2023/03/24 01:37:42;;;;;;;;;;;;;;;12.85;65.64;97139.63;5091651;28;19932;-57
2023/03/24 01:40:11;;;;;;;;;;;;;;;12.93;65.56;97140.59;5092507;28;19932;-56
2023/03/24 01:42:39;;;;;;;;;;;;;;;12.80;66.45;97142.56;5090764;28;19932;-57
2023/03/24 01:45:22;;;;;;;;;;;;;;;12.76;66.46;97149.06;5087776;28;19924;-57
2023/03/24 01:47:50;;;;;;;;;;;;;;;12.70;66.90;97145.00;5090886;28;19928;-57
2023/03/24 01:50:19;;;;;;;;;;;;;;;12.70;67.44;97142.25;5095202;28;19924;-56
2023/03/24 01:52:49;;;;;;;;;;;;;;;12.65;67.65;97145.22;5090478;28;19930;-57
2023/03/24 01:55:18;;;;;;;;;;;;;;;12.68;68.33;97130.91;5091437;28;19924;-57
2023/03/24 01:57:48;;;;;;;;;;;;;;;12.58;68.98;97104.94;5088966;28;19932;-57
2023/03/24 02:00:17;;;;;;;;;;;;;;;12.51;69.59;97105.50;5090541;28;19928;-56
2023/03/24 02:03:13;;;;;;;;;;;;;;;12.53;69.97;97094.28;5087087;28;19928;-58
2023/03/24 02:05:50;;;;;;;;;;;;;;;12.54;69.63;97076.78;5094313;28;19955;-55
2023/03/24 02:08:19;;;;;;;;;;;;;;;12.50;69.11;97071.22;5101986;27;19924;-56
2023/03/24 02:10:47;;;;;;;;;;;;;;;12.51;69.12;97066.56;5103473;27;20033;-56
2023/03/24 02:13:15;;;;;;;;;;;;;;;12.43;69.56;97064.78;5085475;28;20328;-58
2023/03/24 02:15:45;;;;;;;;;;;;;;;12.41;69.72;97056.13;5102912;28;19935;-58
2023/03/24 02:18:17;;;;;;;;;;;;;;;12.42;69.83;97053.09;5090167;28;19953;-57
2023/03/24 02:20:56;;;;;;;;;;;;;;;12.53;69.26;97048.75;5090997;28;20299;-57
2023/03/24 02:23:48;;;;;;;;;;;;;;;12.41;69.68;97050.69;5097477;28;19937;-58
2023/03/24 02:26:23;;;;;;;;;;;;;;;12.47;69.58;97046.63;5092616;28;20288;-58
2023/03/24 02:28:54;;;;;;;;;;;;;;;12.42;69.69;97047.63;5087502;28;19980;-57
2023/03/24 02:31:27;;;;;;;;;;;;;;;12.42;69.18;97039.47;5105675;27;20467;-58
2023/03/24 02:34:12;;;;;;;;;;;;;;;12.57;68.67;97032.50;5091887;28;19958;-57
2023/03/24 02:36:47;;;;;;;;;;;;;;;12.49;68.77;97031.50;5090428;28;19924;-60
2023/03/24 02:39:48;;;;;;;;;;;;;;;12.47;69.06;97033.78;5095710;28;19987;-57
2023/03/24 02:42:24;;;;;;;;;;;;;;;12.48;69.07;97019.03;5097190;28;19941;-58
2023/03/24 02:44:56;;;;;;;;;;;;;;;12.55;68.28;97013.75;5085543;28;19942;-58
2023/03/24 02:47:27;;;;;;;;;;;;;;;12.54;67.68;97012.19;5102201;27;19939;-57
2023/03/24 02:49:56;;;;;;;;;;;;;;;12.58;67.86;97013.09;5091029;28;19932;-57
2023/03/24 02:52:26;;;;;;;;;;;;;;;12.52;68.10;97009.03;5092812;28;19938;-57
2023/03/24 02:54:55;;;;;;;;;;;;;;;12.44;67.97;97000.97;5089792;28;19954;-57
2023/03/24 02:57:27;;;;;;;;;;;;;;;12.55;67.90;96991.19;5090117;28;19938;-57
2023/03/24 03:00:15;;;;;;;;;;;;;;;12.52;67.53;96994.59;5092498;28;19945;-59
2023/03/24 03:03:13;;;;;;;;;;;;;;;12.45;67.83;96981.56;5029362;28;20388;-55
2023/03/24 03:05:44;;;;;;;;;;;;;;;12.39;67.85;96977.50;5089851;28;20391;-57
2023/03/24 03:08:16;;;;;;;;;;;;;;;12.48;67.78;96975.44;5090052;28;19938;-57
2023/03/24 03:10:44;;;;;;;;;;;;;;;12.44;67.87;96977.25;5092569;28;20003;-58
2023/03/24 03:13:15;;;;;;;;;;;;;;;12.48;67.63;96980.88;5085384;28;19946;-55
2023/03/24 03:15:44;;;;;;;;;;;;;;;12.53;67.55;96979.84;5090168;28;19955;-56
2023/03/24 03:18:14;;;;;;;;;;;;;;;12.63;66.76;96982.06;5088661;28;20277;-55
2023/03/24 03:20:49;;;;;;;;;;;;;;;12.54;67.18;96981.41;5088771;28;19938;-56
2023/03/24 03:23:18;;;;;;;;;;;;;;;12.47;67.41;96976.56;5087634;28;20338;-55
2023/03/24 03:25:49;;;;;;;;;;;;;;;12.53;67.04;96977.91;5089332;28;20345;-55
2023/03/24 03:28:19;;;;;;;;;;;;;;;12.51;67.28;96974.72;5092718;28;19939;-55
2023/03/24 03:30:48;;;;;;;;;;;;;;;12.52;67.23;96970.09;5089762;28;19942;-56
2023/03/24 03:33:23;;;;;;;;;;;;;;;12.66;66.69;96965.00;5090704;28;19927;-55
2023/03/24 03:35:52;;;;;;;;;;;;;;;12.61;66.78;96967.19;5084175;28;20003;-58
2023/03/24 03:38:23;;;;;;;;;;;;;;;12.64;67.12;96969.25;5083305;28;19969;-57
2023/03/24 03:40:54;;;;;;;;;;;;;;;12.67;66.49;96963.06;5087706;28;20038;-58
2023/03/24 03:43:28;;;;;;;;;;;;;;;12.60;66.93;96963.69;5088120;28;19953;-58
2023/03/24 03:45:56;;;;;;;;;;;;;;;12.63;67.10;96967.66;5089651;28;20292;-55
2023/03/24 03:48:30;;;;;;;;;;;;;;;12.58;66.98;96971.44;5090174;28;19938;-55
2023/03/24 03:50:58;;;;;;;;;;;;;;;12.63;67.21;96965.72;5087568;28;19964;-57
2023/03/24 03:53:41;;;;;;;;;;;;;;;12.56;67.70;96966.31;5090124;28;19935;-55
2023/03/24 03:56:09;;;;;;;;;;;;;;;12.64;67.46;96955.63;5090000;28;19962;-55
2023/03/24 03:58:52;;;;;;;;;;;;;;;12.64;67.40;96961.06;5087745;28;20295;-56
2023/03/24 04:01:21;;;;;;;;;;;;;;;12.53;67.65;96960.78;5089910;28;19939;-56
2023/03/24 04:04:11;;;;;;;;;;;;;;;12.54;67.85;96968.59;5091284;28;19935;-55
2023/03/24 04:07:15;;;;;;;;;;;;;;;12.53;67.85;96958.84;5103922;28;19946;-56
2023/03/24 04:09:49;;;;;;;;;;;;;;;12.48;68.19;96959.09;5092526;28;19946;-55
2023/03/24 04:12:30;;;;;;;;;;;;;;;12.45;68.28;96964.41;5103934;28;19945;-57
2023/03/24 04:15:38;;;;;;;;;;;;;;;12.43;68.25;96961.25;5058341;28;19954;-56
2023/03/24 04:18:42;;;;;;;;;;;;;;;12.35;68.38;96965.69;5089569;28;19980;-56
2023/03/24 04:21:13;;;;;;;;;;;;;;;12.36;68.38;96961.84;5093644;28;19934;-55
2023/03/24 04:23:44;;;;;;;;;;;;;;;12.45;67.99;96962.50;5081131;28;19935;-56
2023/03/24 04:26:14;;;;;;;;;;;;;;;12.35;68.50;96960.25;5091985;28;19939;-56
2023/03/24 04:28:51;;;;;;;;;;;;;;;12.45;68.10;96965.22;5085091;28;20559;-57
2023/03/24 04:31:24;;;;;;;;;;;;;;;12.41;68.05;96958.91;5100291;28;20042;-55
2023/03/24 04:33:57;;;;;;;;;;;;;;;12.34;68.32;96955.94;5088470;28;20528;-55
2023/03/24 04:36:26;;;;;;;;;;;;;;;12.30;68.60;96955.88;5106727;28;19985;-56
2023/03/24 04:39:24;;;;;;;;;;;;;;;12.30;67.74;96952.31;5084611;28;20411;-55
2023/03/24 04:41:52;;;;;;;;;;;;;;;12.35;68.06;96956.75;5087764;28;20044;-56
2023/03/24 04:44:25;;;;;;;;;;;;;;;12.28;68.40;96954.63;5112476;28;19984;-55
2023/03/24 04:47:14;;;;;;;;;;;;;;;12.38;67.76;96954.13;5089962;28;19934;-56
2023/03/24 04:50:00;;;;;;;;;;;;;;;12.36;67.92;96950.97;5090253;28;19934;-55
2023/03/24 04:52:31;;;;;;;;;;;;;;;12.40;67.71;96957.28;5089081;28;19934;-56
2023/03/24 04:55:01;;;;;;;;;;;;;;;12.34;67.33;96953.22;5086140;28;20414;-55
2023/03/24 04:57:30;;;;;;;;;;;;;;;12.34;67.64;96950.50;5088020;28;19935;-55
2023/03/24 05:00:07;;;;;;;;;;;;;;;12.45;67.16;96950.81;5085267;28;19942;-55
2023/03/24 05:02:36;;;;;;;;;;;;;;;12.47;66.98;96943.88;5088966;28;19957;-56
2023/03/24 05:05:09;;;;;;;;;;;;;;;12.53;66.58;96950.66;5089247;28;19935;-56
2023/03/24 05:07:42;;;;;;;;;;;;;;;12.44;66.78;96941.84;5091018;28;19942;-57
2023/03/24 05:10:13;;;;;;;;;;;;;;;12.46;66.71;96939.56;5085010;28;20302;-57
2023/03/24 05:12:47;;;;;;;;;;;;;;;12.55;65.91;96931.25;5102081;28;19934;-55
2023/03/24 05:15:18;;;;;;;;;;;;;;;12.66;65.36;96920.63;5089275;28;20041;-55
2023/03/24 05:17:51;;;;;;;;;;;;;;;12.57;65.51;96912.63;5086252;28;19964;-55
2023/03/24 05:20:24;;;;;;;;;;;;;;;12.65;65.43;96919.84;5088451;28;19946;-55
2023/03/24 05:22:52;;;;;;;;;;;;;;;12.76;64.94;96925.56;5084495;28;19942;-55
2023/03/24 05:25:20;;;;;;;;;;;;;;;12.70;65.27;96924.25;5105935;28;19939;-56
2023/03/24 05:27:48;;;;;;;;;;;;;;;12.77;65.21;96927.94;5088126;28;19934;-56
2023/03/24 05:30:20;;;;;;;;;;;;;;;12.76;65.15;96933.75;5088867;28;20366;-55
2023/03/24 05:32:53;;;;;;;;;;;;;;;12.75;64.84;96926.72;5109235;28;19958;-55
2023/03/24 05:35:20;;;;;;;;;;;;;;;12.74;64.99;96931.38;5083754;28;19939;-55
2023/03/24 05:37:48;;;;;;;;;;;;;;;12.76;64.72;96933.75;5091150;28;19924;-56
2023/03/24 05:40:17;;;;;;;;;;;;;;;12.93;64.00;96924.44;5092680;28;19924;-56
2023/03/24 05:42:52;;;;;;;;;;;;;;;12.87;64.38;96934.81;5083173;28;19931;-56
2023/03/24 05:45:23;;;;;;;;;;;;;;;12.97;64.04;96941.69;5092282;28;19924;-55
2023/03/24 05:47:53;;;;;;;;;;;;;;;12.93;64.39;96944.31;5091808;28;19943;-56
2023/03/24 05:50:30;;;;;;;;;;;;;;;12.88;64.20;96947.31;5093135;28;19924;-55
2023/03/24 05:53:04;;;;;;;;;;;;;;;12.96;63.57;96937.38;5090624;28;19931;-55
2023/03/24 05:55:57;;;;;;;;;;;;;;;12.94;63.96;96948.63;5092819;28;20360;-56
2023/03/24 05:58:47;;;;;;;;;;;;;;;13.11;63.40;96953.75;5089958;28;19931;-56
2023/03/24 06:01:17;;;;;;;;;;;;;;;13.06;63.40;96967.66;5098390;28;19924;-55
2023/03/24 06:03:51;;;;;;;;;;;;;;;12.99;63.67;96963.94;5097883;28;19950;-56
2023/03/24 06:06:19;;;;;;;;;;;;;;;13.05;63.41;96965.28;5095404;28;19924;-56
2023/03/24 06:08:48;;;;;;;;;;;;;;;13.05;63.70;96968.81;5085769;28;19931;-57
2023/03/24 06:11:17;;;;;;;;;;;;;;;13.18;63.43;96966.78;5114105;27;20369;-55
2023/03/24 06:13:59;;;;;;;;;;;;;;;13.13;63.59;96971.72;5083780;28;19939;-56
2023/03/24 06:16:32;;;;;;;;;;;;;;;13.19;63.40;96948.47;5087233;28;19977;-55
2023/03/24 06:19:05;;;;;;;;;;;;;;;13.18;63.82;96960.53;5084442;28;19997;-55
2023/03/24 06:22:02;;;;;;;;;;;;;;;13.19;63.95;96957.44;5083049;28;20337;-55
2023/03/24 06:24:34;;;;;;;;;;;;;;;13.20;63.97;96958.25;5090780;28;20011;-56
2023/03/24 06:27:07;;;;;;;;;;;;;;;13.30;63.94;96950.34;5089873;28;20407;-55
2023/03/24 06:29:36;;;;;;;;;;;;;;;13.23;64.21;96947.47;5091190;28;20300;-58
2023/03/24 06:32:04;;;;;;;;;;;;;;;13.27;64.29;96961.19;5099947;27;19928;-56
2023/03/24 06:34:40;;;;;;;;;;;;;;;13.27;64.63;96955.75;5090072;28;19928;-56
2023/03/24 06:37:17;;;;;;;;;;;;;;;13.29;63.58;96965.16;5097816;27;19959;-56
2023/03/24 06:39:45;;;;;;;;;;;;;;;13.38;63.39;96972.38;5088277;28;20352;-56
2023/03/24 06:42:15;;;;;;;;;;;;;;;13.32;64.56;96985.50;5084165;28;19928;-57
2023/03/24 06:44:43;;;;;;;;;;;;;;;13.34;63.10;96983.97;5087354;28;19950;-56
2023/03/24 06:47:11;;;;;;;;;;;;;;;13.42;62.68;96995.06;5090855;28;19931;-57
2023/03/24 06:49:40;;;;;;;;;;;;;;;13.61;61.97;97011.53;5085380;28;19931;-56
2023/03/24 06:52:08;;;;;;;;;;;;;;;13.61;61.42;97022.44;5074827;28;19924;-56
2023/03/24 06:54:40;;;;;;;;;;;;;;;13.80;60.89;97028.00;5099454;28;19931;-56
2023/03/24 06:57:09;;;;;;;;;;;;;;;13.73;61.49;97024.28;5090605;28;20463;-56
2023/03/24 07:00:13;;;;;;;;;;;;;;;13.74;61.63;97028.59;5090977;28;19936;-56
2023/03/24 07:02:55;;;;;;;;;;;;;;;13.78;63.22;97043.13;5086546;28;20014;-59
2023/03/24 07:05:26;;;;;;;;;;;;;;;13.96;61.76;97036.16;5087542;28;20650;-56
2023/03/24 07:07:54;;;;;;;;;;;;;;;14.06;61.53;97049.28;5084944;28;20339;-55
2023/03/24 07:10:47;;;;;;;;;;;;;;;14.07;61.81;97056.31;5087698;28;19943;-55
2023/03/24 07:13:16;;;;;;;;;;;;;;;14.12;61.12;97058.78;5077159;28;20324;-56
2023/03/24 07:15:44;;;;;;;;;;;;;;;14.10;60.84;97063.00;5084213;28;19924;-57
2023/03/24 07:18:12;;;;;;;;;;;;;;;14.03;60.59;97058.16;5089813;28;19928;-56
2023/03/24 07:20:44;;;;;;;;;;;;;;;14.20;60.47;97067.13;5080470;28;20013;-55
2023/03/24 07:23:17;;;;;;;;;;;;;;;14.11;60.50;97056.38;5097028;28;19928;-55
2023/03/24 07:26:12;;;;;;;;;;;;;;;14.21;60.28;97063.25;5083048;28;19928;-57
2023/03/24 07:29:02;;;;;;;;;;;;;;;14.22;60.03;97065.66;5087907;28;19924;-57
2023/03/24 07:31:39;;;;;;;;;;;;;;;14.27;60.63;97061.81;5103365;28;19924;-58
2023/03/24 07:34:11;;;;;;;;;;;;;;;14.22;60.66;97053.91;5089452;28;19972;-57
2023/03/24 07:36:41;;;;;;;;;;;;;;;14.11;60.60;97068.13;5106159;27;19928;-57
2023/03/24 07:39:13;;;;;;;;;;;;;;;14.02;61.39;97072.19;5083142;28;20030;-56
2023/03/24 07:41:42;;;;;;;;;;;;;;;14.01;61.73;97076.03;5093992;28;19931;-57
2023/03/24 07:44:26;;;;;;;;;;;;;;;13.98;61.22;97076.75;5085084;28;20278;-59
2023/03/24 07:46:54;;;;;;;;;;;;;;;13.86;62.07;97072.19;5088325;28;20007;-56
2023/03/24 07:49:22;;;;;;;;;;;;;;;13.91;62.08;97071.94;5091936;28;19970;-56
2023/03/24 07:52:05;;;;;;;;;;;;;;;13.92;62.03;97070.00;5088864;28;19924;-56
2023/03/24 07:54:37;;;;;;;;;;;;;;;13.87;62.63;97071.03;5085264;28;19932;-57
2023/03/24 07:57:05;;;;;;;;;;;;;;;13.98;61.98;97074.03;5084984;28;20301;-57
2023/03/24 07:59:36;;;;;;;;;;;;;;;14.04;62.38;97070.69;5085575;28;20404;-57
2023/03/24 08:02:16;;;;;;;;;;;;;;;13.95;62.10;97067.31;5101912;28;19928;-57
2023/03/24 08:05:23;;;;;;;;;;;;;;;14.11;62.05;97062.66;5027779;28;19925;-56
2023/03/24 08:08:20;;;;;;;;;;;;;;;14.14;61.55;97056.47;5025861;28;19932;-57
2023/03/24 08:10:49;;;;;;;;;;;;;;;14.14;61.96;97052.97;5056249;28;19928;-56
2023/03/24 08:13:17;;;;;;;;;;;;;;;14.14;62.09;97042.81;5088850;28;19973;-58
2023/03/24 08:15:44;;;;;;;;;;;;;;;14.14;62.27;97042.03;5087033;28;19932;-57
2023/03/24 08:18:13;;;;;;;;;;;;;;;14.15;61.81;97049.88;5095902;28;20392;-57
2023/03/24 08:20:41;;;;;;;;;;;;;;;14.19;61.55;97049.94;5109373;27;19928;-56
2023/03/24 08:23:10;;;;;;;;;;;;;;;14.21;61.70;97049.59;5087525;28;19924;-56
2023/03/24 08:25:40;;;;;;;;;;;;;;;14.20;61.35;97048.00;5088000;28;19928;-56
2023/03/24 08:28:09;;;;;;;;;;;;;;;14.28;61.15;97058.75;5086653;28;19962;-57
2023/03/24 08:30:42;;;;;;;;;;;;;;;14.19;62.02;97060.88;5085019;28;20385;-56
2023/03/24 08:33:11;;;;;;;;;;;;;;;14.24;61.57;97062.56;5087814;28;19958;-56
2023/03/24 08:35:39;;;;;;;;;;;;;;;14.24;61.21;97059.81;5087323;28;19938;-57
2023/03/24 08:38:08;;;;;;;;;;;;;;;14.15;62.03;97063.53;5089083;28;19963;-56
2023/03/24 08:40:36;;;;;;;;;;;;;;;14.21;61.81;97074.19;5090763;28;19938;-57
2023/03/24 08:43:07;;;;;;;;;;;;;;;14.16;62.38;97078.75;5085405;28;19942;-60
2023/03/24 08:45:35;;;;;;;;;;;;;;;14.08;62.56;97085.22;5091616;28;19935;-57
2023/03/24 08:48:04;;;;;;;;;;;;;;;14.20;63.08;97083.53;5090041;28;19954;-59
2023/03/24 08:50:33;;;;;;;;;;;;;;;14.19;63.74;97090.94;5089433;28;19934;-57
2023/03/24 08:53:02;;;;;;;;;;;;;;;14.16;64.34;97086.16;5091238;28;19949;-57
2023/03/24 08:55:30;;;;;;;;;;;;;;;14.14;65.58;97089.25;5089806;28;19934;-56
2023/03/24 08:57:58;;;;;;;;;;;;;;;14.19;65.38;97098.34;5084660;28;20057;-57
2023/03/24 09:00:29;;;;;;;;;;;;;;;14.12;65.80;97088.81;5090723;28;19939;-59
2023/03/24 09:02:57;;;;;;;;;;;;;;;14.15;66.27;97093.56;5106113;28;20341;-60
2023/03/24 09:05:26;;;;;;;;;;;;;;;14.09;66.68;97094.97;5104779;28;20012;-57
2023/03/24 09:08:11;;;;;;;;;;;;;;;14.07;67.68;97097.28;5108292;28;20036;-56
2023/03/24 09:10:39;;;;;;;;;;;;;;;14.06;67.28;97094.91;5098240;28;20420;-57
2023/03/24 09:13:06;;;;;;;;;;;;;;;13.98;67.95;97104.88;5089401;28;19942;-56
2023/03/24 09:15:36;;;;;;;;;;;;;;;13.92;68.83;97100.81;5090951;28;20384;-61
2023/03/24 09:18:05;;;;;;;;;;;;;;;13.86;69.91;97107.69;5084166;28;19977;-56
2023/03/24 09:20:33;;;;;;;;;;;;;;;13.86;69.83;97100.28;5090174;28;19949;-57
2023/03/24 09:23:02;;;;;;;;;;;;;;;13.82;69.89;97106.81;5089400;28;20406;-57
2023/03/24 09:25:30;;;;;;;;;;;;;;;13.66;70.25;97112.25;5090292;28;20036;-57
2023/03/24 09:27:58;;;;;;;;;;;;;;;13.66;70.80;97097.81;5085591;28;19939;-56
2023/03/24 09:30:25;;;;;;;;;;;;;;;13.62;71.16;97108.63;5105221;27;19939;-55
2023/03/24 09:32:57;;;;;;;;;;;;;;;13.57;71.54;97100.69;5086746;28;19935;-56
2023/03/24 09:35:27;;;;;;;;;;;;;;;13.54;71.87;97096.75;5093506;28;19924;-56
2023/03/24 09:37:55;;;;;;;;;;;;;;;13.47;72.43;97090.28;5094286;28;19994;-55
2023/03/24 09:40:24;;;;;;;;;;;;;;;13.40;73.14;97066.34;5094268;28;20299;-56
2023/03/24 09:42:54;;;;;;;;;;;;;;;13.44;73.40;97026.31;5091074;28;20303;-59
2023/03/24 09:45:22;;;;;;;;;;;;;;;13.33;74.61;97053.31;5090896;28;20403;-55
2023/03/24 09:47:52;;;;;;;;;;;;;;;13.49;74.64;97091.53;5090051;28;20403;-56
2023/03/24 09:50:24;;;;;;;;;;;;;;;13.57;74.20;97093.31;5114336;27;19954;-55
2023/03/24 09:52:55;;;;;;;;;;;;;;;13.60;74.94;97084.41;5095231;28;20310;-56
2023/03/24 09:55:24;;;;;;;;;;;;;;;13.76;74.15;97087.16;5099327;27;19987;-56
2023/03/24 09:57:53;;;;;;;;;;;;;;;13.89;73.49;97085.13;5089445;28;19955;-55
2023/03/24 10:00:22;;;;;;;;;;;;;;;13.94;73.30;97073.16;5094194;28;19938;-56
2023/03/24 10:02:51;;;;;;;;;;;;;;;13.97;72.90;97072.47;5093365;28;19946;-55
2023/03/24 10:05:21;;;;;;;;;;;;;;;14.04;72.82;97087.06;5095781;28;19939;-55
2023/03/24 10:07:52;;;;;;;;;;;;;;;14.26;72.45;97093.03;5088052;28;19924;-57
2023/03/24 10:10:23;;;;;;;;;;;;;;;14.34;71.89;97089.31;5087533;28;20289;-55
2023/03/24 10:12:51;;;;;;;;;;;;;;;14.42;71.68;97097.31;5097470;28;19928;-56
2023/03/24 10:15:20;;;;;;;;;;;;;;;14.48;70.83;97099.81;5094208;28;19924;-55
2023/03/24 10:18:02;;;;;;;;;;;;;;;14.51;71.37;97102.63;5094813;28;19968;-56
2023/03/24 10:20:32;;;;;;;;;;;;;;;14.47;70.41;97093.53;5089678;28;20230;-55
2023/03/24 10:23:03;;;;;;;;;;;;;;;14.58;70.49;97094.56;5093159;28;19942;-56
2023/03/24 10:25:40;;;;;;;;;;;;;;;14.58;70.72;97082.84;5091518;28;19945;-57
2023/03/24 10:28:09;;;;;;;;;;;;;;;14.66;69.89;97099.06;5095854;28;19928;-56
2023/03/24 10:30:39;;;;;;;;;;;;;;;14.57;70.38;97087.53;5085496;28;19939;-56
2023/03/24 10:33:11;;;;;;;;;;;;;;;14.57;69.56;97095.72;5088276;28;19928;-58
2023/03/24 10:35:42;;;;;;;;;;;;;;;14.49;69.87;97094.00;5098363;27;19938;-55
2023/03/24 10:38:14;;;;;;;;;;;;;;;14.42;70.35;97083.66;5085977;28;19931;-56
2023/03/24 10:40:42;;;;;;;;;;;;;;;14.35;68.92;97074.50;5094997;28;19970;-56
2023/03/24 10:43:10;;;;;;;;;;;;;;;14.44;70.02;97075.13;5090708;28;19997;-56
2023/03/24 10:45:39;;;;;;;;;;;;;;;14.59;69.26;97087.16;5096473;28;20319;-55
2023/03/24 10:48:08;;;;;;;;;;;;;;;14.58;68.59;97094.56;5093180;28;20438;-57
2023/03/24 10:50:37;;;;;;;;;;;;;;;14.50;69.13;97089.31;5089334;28;19924;-56
2023/03/24 10:53:08;;;;;;;;;;;;;;;14.50;69.08;97081.91;5088014;28;19928;-56
2023/03/24 10:55:38;;;;;;;;;;;;;;;14.60;68.61;97089.56;5082589;28;19924;-58
2023/03/24 10:58:10;;;;;;;;;;;;;;;14.61;67.81;97088.41;5081000;28;19924;-56
2023/03/24 11:00:38;;;;;;;;;;;;;;;14.56;68.18;97104.28;5091306;28;19924;-56
2023/03/24 11:03:11;;;;;;;;;;;;;;;14.51;67.55;97097.16;5089416;28;19932;-57
2023/03/24 11:05:40;;;;;;;;;;;;;;;14.51;68.32;97097.16;5088855;28;20437;-56
2023/03/24 11:08:12;;;;;;;;;;;;;;;14.36;69.04;97095.22;5093767;28;19924;-61
2023/03/24 11:10:42;;;;;;;;;;;;;;;14.41;68.12;97106.66;5092206;28;19924;-56
2023/03/24 11:13:16;;;;;;;;;;;;;;;14.48;67.84;97095.13;5092500;28;19978;-56
2023/03/24 11:15:55;;;;;;;;;;;;;;;14.49;68.60;97095.91;5084996;28;19936;-55
2023/03/24 11:18:24;;;;;;;;;;;;;;;14.47;68.55;97099.00;5089944;28;20022;-55
2023/03/24 11:20:53;;;;;;;;;;;;;;;14.48;68.81;97095.13;5099947;28;20369;-60
2023/03/24 11:23:21;;;;;;;;;;;;;;;14.39;68.43;97092.56;5092903;28;19928;-60
2023/03/24 11:26:02;;;;;;;;;;;;;;;14.41;69.02;97084.00;5089353;28;19924;-56
2023/03/24 11:28:30;;;;;;;;;;;;;;;14.40;68.30;97079.69;5088656;28;20458;-56
2023/03/24 11:30:58;;;;;;;;;;;;;;;14.42;68.42;97075.44;5091252;28;19934;-56
2023/03/24 11:33:27;;;;;;;;;;;;;;;14.42;68.51;97069.19;5079738;28;19932;-56
2023/03/24 11:36:01;;;;;;;;;;;;;;;14.37;68.46;97066.75;5083328;28;20015;-56
2023/03/24 11:38:33;;;;;;;;;;;;;;;14.44;68.56;97066.91;5085139;28;19928;-56
2023/03/24 11:41:03;;;;;;;;;;;;;;;14.43;68.10;97070.78;5090684;28;19989;-57
2023/03/24 11:43:31;;;;;;;;;;;;;;;14.58;68.15;97067.25;5089896;28;19964;-56
2023/03/24 11:46:00;;;;;;;;;;;;;;;14.63;67.47;97061.50;5087941;28;19924;-58
2023/03/24 11:48:30;;;;;;;;;;;;;;;14.61;68.21;97058.34;5084655;28;20015;-56
2023/03/24 11:50:58;;;;;;;;;;;;;;;14.51;68.40;97055.38;5088925;28;19924;-56
2023/03/24 11:53:26;;;;;;;;;;;;;;;14.55;68.13;97050.78;5089069;28;20305;-56
2023/03/24 11:55:54;;;;;;;;;;;;;;;14.87;67.25;97056.91;5087137;28;19924;-57
2023/03/24 11:58:27;;;;;;;;;;;;;;;14.81;67.55;97052.88;5092463;28;19924;-56
2023/03/24 12:00:57;;;;;;;;;;;;;;;14.85;66.68;97051.00;5088978;28;20408;-57
2023/03/24 12:03:31;;;;;;;;;;;;;;;14.84;67.67;97046.69;5088476;28;20603;-58
2023/03/24 12:06:02;;;;;;;;;;;;;;;14.80;66.88;97041.13;5089369;28;20346;-56
2023/03/24 12:08:32;;;;;;;;;;;;;;;14.81;67.01;97037.28;5098815;28;19928;-56
2023/03/24 12:11:03;;;;;;;;;;;;;;;14.90;66.12;97032.34;5091778;27;19969;-56
2023/03/24 12:13:35;;;;;;;;;;;;;;;14.82;66.69;97022.44;5091117;28;19935;-56
2023/03/24 12:16:09;;;;;;;;;;;;;;;14.74;66.61;97025.38;5088289;28;20362;-55
2023/03/24 12:18:40;;;;;;;;;;;;;;;14.76;66.31;97020.38;5093165;28;19924;-56
2023/03/24 12:21:10;;;;;;;;;;;;;;;14.80;66.61;97032.13;5087016;28;19931;-56
2023/03/24 12:23:39;;;;;;;;;;;;;;;14.99;65.89;97018.47;5084078;28;19932;-56
2023/03/24 12:26:15;;;;;;;;;;;;;;;14.99;65.75;97021.19;5089608;28;20288;-58
2023/03/24 12:28:48;;;;;;;;;;;;;;;15.05;65.27;97024.44;5081626;28;19924;-58
2023/03/24 12:31:23;;;;;;;;;;;;;;;15.05;65.05;97013.50;5080078;28;20935;-56
2023/03/24 12:33:52;;;;;;;;;;;;;;;15.04;65.04;97009.97;5090682;28;19932;-55
2023/03/24 12:36:23;;;;;;;;;;;;;;;14.95;65.10;97003.91;5084223;28;19947;-56
2023/03/24 12:38:55;;;;;;;;;;;;;;;14.99;65.48;96998.53;5085009;28;19978;-56
2023/03/24 12:41:25;;;;;;;;;;;;;;;15.14;65.19;96998.44;5081699;28;20281;-56
2023/03/24 12:44:00;;;;;;;;;;;;;;;15.31;64.39;96994.44;5090620;28;19946;-56
2023/03/24 12:46:33;;;;;;;;;;;;;;;15.31;64.02;96988.97;5082494;28;20405;-56
2023/03/24 12:49:29;;;;;;;;;;;;;;;15.35;63.84;96980.81;5094011;28;19931;-55
2023/03/24 12:52:01;;;;;;;;;;;;;;;15.39;63.38;96989.84;5096553;28;19980;-56
2023/03/24 12:54:31;;;;;;;;;;;;;;;15.29;63.63;96974.06;5089311;28;19959;-55
2023/03/24 12:57:00;;;;;;;;;;;;;;;15.33;63.89;96970.22;5094755;28;19928;-55
2023/03/24 12:59:30;;;;;;;;;;;;;;;15.31;63.63;96952.59;5091817;28;19924;-56
2023/03/24 13:02:00;;;;;;;;;;;;;;;15.34;63.44;96958.13;5092525;28;19928;-55
2023/03/24 13:04:29;;;;;;;;;;;;;;;15.37;62.80;96949.19;5091305;28;19935;-55
2023/03/24 13:06:58;;;;;;;;;;;;;;;15.31;61.61;96953.38;5085588;28;19932;-56
2023/03/24 13:09:32;;;;;;;;;;;;;;;15.34;60.31;96954.59;5103058;28;19931;-56
2023/03/24 13:12:03;;;;;;;;;;;;;;;15.27;61.74;96951.75;5088830;28;20301;-55
2023/03/24 13:14:37;;;;;;;;;;;;;;;15.24;62.81;96947.00;5093668;28;19932;-56